createdAt,value
2019-03-10T00:00:27.356Z,16.67
2019-03-10T00:02:53.461Z,16.37
2019-03-10T00:05:19.410Z,17.13
2019-03-10T00:07:45.456Z,17.93
2019-03-10T00:10:11.482Z,18.87
2019-03-10T00:12:37.650Z,19.50
2019-03-10T00:15:07.288Z,18.93
2019-03-10T00:17:33.344Z,18.87
2019-03-10T00:19:59.290Z,18.67
2019-03-10T00:22:25.396Z,19.57
2019-03-10T00:24:51.240Z,18.87
2019-03-10T00:27:17.172Z,18.37
2019-03-10T00:29:43.164Z,19.37
2019-03-10T00:32:09.196Z,18.73
2019-03-10T00:34:35.132Z,17.43
2019-03-10T00:37:01.093Z,18.20
2019-03-10T00:39:30.735Z,18.40
2019-03-10T00:42:15.521Z,17.53
2019-03-10T00:45:03.452Z,18.13
2019-03-10T00:47:53.106Z,16.13
2019-03-10T00:50:22.790Z,16.80
2019-03-10T00:52:58.928Z,16.63
2019-03-10T00:55:24.967Z,16.97
2019-03-10T00:57:51.000Z,18.00
2019-03-10T01:00:17.169Z,17.53
2019-03-10T01:02:43.201Z,17.83
2019-03-10T01:05:09.268Z,18.30
2019-03-10T01:07:35.432Z,17.47
2019-03-10T01:10:01.473Z,17.50
2019-03-10T01:12:27.586Z,17.43
2019-03-10T01:14:53.612Z,17.73
2019-03-10T01:17:20.205Z,17.00
2019-03-10T01:19:46.122Z,17.73
2019-03-10T01:22:12.241Z,17.07
2019-03-10T01:24:38.054Z,16.67
2019-03-10T01:27:04.118Z,16.30
2019-03-10T01:29:30.014Z,15.53
2019-03-10T01:31:59.679Z,16.20
2019-03-10T01:34:35.419Z,14.90
2019-03-10T01:37:01.533Z,15.47
2019-03-10T01:39:27.493Z,15.87
2019-03-10T01:41:53.466Z,15.90
2019-03-10T01:44:19.369Z,15.80
2019-03-10T01:46:45.199Z,15.67
2019-03-10T01:49:11.105Z,15.73
2019-03-10T01:51:36.945Z,16.00
2019-03-10T01:54:03.029Z,17.07
2019-03-10T01:56:29.042Z,15.60
2019-03-10T01:58:56.816Z,16.33
2019-03-10T02:01:22.766Z,15.80
2019-03-10T02:03:48.999Z,16.27
2019-03-10T02:06:14.973Z,16.07
2019-03-10T02:08:40.914Z,16.50
2019-03-10T02:11:06.906Z,16.20
2019-03-10T02:13:32.866Z,16.43
2019-03-10T02:15:58.874Z,15.97
2019-03-10T02:18:24.848Z,16.57
2019-03-10T02:20:50.880Z,15.87
2019-03-10T02:23:16.736Z,14.67
2019-03-10T02:25:42.673Z,14.87
2019-03-10T02:28:08.755Z,15.03
2019-03-10T02:30:34.894Z,15.30
2019-03-10T02:33:00.763Z,15.17
2019-03-10T02:35:26.636Z,14.87
2019-03-10T02:37:52.479Z,14.80
2019-03-10T02:40:18.529Z,14.60
2019-03-10T02:42:44.722Z,15.03
2019-03-10T02:45:10.879Z,15.07
2019-03-10T02:47:36.904Z,15.83
2019-03-10T02:50:05.210Z,15.47
2019-03-10T02:52:31.176Z,16.03
2019-03-10T02:54:57.151Z,15.83
2019-03-10T02:57:23.353Z,15.70
2019-03-10T02:59:49.302Z,16.00
2019-03-10T03:02:15.151Z,15.47
2019-03-10T03:04:41.032Z,16.20
2019-03-10T03:07:06.984Z,14.40
2019-03-10T03:09:32.889Z,15.90
2019-03-10T03:11:58.921Z,15.50
2019-03-10T03:14:24.724Z,15.60
2019-03-10T03:16:52.892Z,15.03
2019-03-10T03:19:18.762Z,15.07
2019-03-10T03:21:44.719Z,15.17
2019-03-10T03:24:10.641Z,15.80
2019-03-10T03:26:36.693Z,16.07
2019-03-10T03:29:02.731Z,15.80
2019-03-10T03:31:28.584Z,16.37
2019-03-10T03:33:54.468Z,15.73
2019-03-10T03:36:29.778Z,15.73
2019-03-10T03:38:59.371Z,15.77
2019-03-10T03:41:25.598Z,15.90
2019-03-10T03:43:51.410Z,15.77
2019-03-10T03:46:17.443Z,16.77
2019-03-10T03:48:43.387Z,16.53
2019-03-10T03:51:09.620Z,15.57
2019-03-10T03:53:35.617Z,15.90
2019-03-10T03:56:01.656Z,16.30
2019-03-10T03:58:27.615Z,15.97
2019-03-10T04:00:58.166Z,15.23
2019-03-10T04:03:24.351Z,15.33
2019-03-10T04:05:50.297Z,15.17
2019-03-10T04:08:16.332Z,15.30
2019-03-10T04:10:42.405Z,14.70
2019-03-10T04:13:08.223Z,14.80
2019-03-10T04:15:34.398Z,15.33
2019-03-10T04:18:00.213Z,14.90
2019-03-10T04:20:26.209Z,15.00
2019-03-10T04:22:52.208Z,15.73
2019-03-10T04:25:18.155Z,14.83
2019-03-10T04:27:44.118Z,14.93
2019-03-10T04:30:10.944Z,14.50
2019-03-10T04:32:36.890Z,14.57
2019-03-10T04:35:04.799Z,14.70
2019-03-10T04:37:30.686Z,14.13
2019-03-10T04:39:56.520Z,14.27
2019-03-10T04:42:22.429Z,13.90
2019-03-10T04:44:48.297Z,14.53
2019-03-10T04:47:14.266Z,14.07
2019-03-10T04:49:40.167Z,14.80
2019-03-10T04:52:06.124Z,15.30
2019-03-10T04:54:36.738Z,14.70
2019-03-10T04:57:04.498Z,14.93
2019-03-10T04:59:30.439Z,14.37
2019-03-10T05:01:56.546Z,14.57
2019-03-10T05:04:22.379Z,14.40
2019-03-10T05:06:48.230Z,14.97
2019-03-10T05:09:14.101Z,15.20
2019-03-10T05:11:40.157Z,15.13
2019-03-10T05:14:06.344Z,14.93
2019-03-10T05:16:32.185Z,15.03
2019-03-10T05:19:02.186Z,15.93
2019-03-10T05:21:28.179Z,16.10
2019-03-10T05:23:56.647Z,14.50
2019-03-10T05:26:22.476Z,15.03
2019-03-10T05:28:48.458Z,15.73
2019-03-10T05:31:14.513Z,15.20
2019-03-10T05:33:40.551Z,15.80
2019-03-10T05:36:06.468Z,14.80
2019-03-10T05:38:32.751Z,14.53
2019-03-10T05:40:58.585Z,14.63
2019-03-10T05:43:24.536Z,14.63
2019-03-10T05:45:50.468Z,15.17
2019-03-10T05:48:16.534Z,15.43
2019-03-10T05:50:42.561Z,15.70
2019-03-10T05:53:08.502Z,15.37
2019-03-10T05:55:34.424Z,14.67
2019-03-10T05:58:00.360Z,15.20
2019-03-10T06:00:26.333Z,15.50
2019-03-10T06:02:52.292Z,14.47
2019-03-10T06:05:18.232Z,15.17
2019-03-10T06:07:44.196Z,14.63
2019-03-10T06:10:10.276Z,14.17
2019-03-10T06:12:36.617Z,14.10
2019-03-10T06:15:05.243Z,13.27
2019-03-10T06:17:33.110Z,14.40
2019-03-10T06:19:59.279Z,14.00
2019-03-10T06:22:25.209Z,14.53
2019-03-10T06:24:51.172Z,14.73
2019-03-10T06:27:17.043Z,14.20
2019-03-10T06:29:42.991Z,14.77
2019-03-10T06:32:08.988Z,14.53
2019-03-10T06:34:35.105Z,14.70
2019-03-10T06:37:03.069Z,14.83
2019-03-10T06:39:29.015Z,14.77
2019-03-10T06:41:54.929Z,14.17
2019-03-10T06:44:21.164Z,14.77
2019-03-10T06:46:47.249Z,14.43
2019-03-10T06:49:13.132Z,14.37
2019-03-10T06:51:38.975Z,15.10
2019-03-10T06:54:04.867Z,14.87
2019-03-10T06:56:30.886Z,14.33
2019-03-10T06:58:56.744Z,15.07
2019-03-10T07:01:22.695Z,14.57
2019-03-10T07:03:48.561Z,14.13
2019-03-10T07:06:14.562Z,14.73
2019-03-10T07:08:40.556Z,14.97
2019-03-10T07:11:06.402Z,14.50
2019-03-10T07:13:32.342Z,16.20
2019-03-10T07:15:58.279Z,15.77
2019-03-10T07:18:24.134Z,15.80
2019-03-10T07:20:50.036Z,16.10
2019-03-10T07:23:17.355Z,15.60
2019-03-10T07:25:43.197Z,14.57
2019-03-10T07:28:14.123Z,14.83
2019-03-10T07:30:42.038Z,15.60
2019-03-10T07:33:10.117Z,17.00
2019-03-10T07:35:54.691Z,15.30
2019-03-10T07:38:37.579Z,14.73
2019-03-10T07:41:21.951Z,15.10
2019-03-10T07:43:52.453Z,14.90
2019-03-10T07:46:23.187Z,15.50
2019-03-10T07:49:03.113Z,14.70
2019-03-10T07:51:30.892Z,16.70
2019-03-10T07:54:04.746Z,15.83
2019-03-10T07:56:35.519Z,15.70
2019-03-10T07:59:03.364Z,15.40
2019-03-10T08:01:31.085Z,16.60
2019-03-10T08:04:15.868Z,15.60
2019-03-10T08:07:00.365Z,17.93
2019-03-10T08:09:28.236Z,17.23
2019-03-10T08:12:05.172Z,17.03
2019-03-10T08:14:44.896Z,16.37
2019-03-10T08:17:18.686Z,16.53
2019-03-10T08:19:46.668Z,17.67
2019-03-10T08:22:17.202Z,17.47
2019-03-10T08:24:47.967Z,18.20
2019-03-10T08:27:15.704Z,18.37
2019-03-10T08:29:43.458Z,18.70
2019-03-10T08:32:20.025Z,19.10
2019-03-10T08:34:47.772Z,17.33
2019-03-10T08:37:15.722Z,19.93
2019-03-10T08:39:49.461Z,19.27
2019-03-10T08:42:32.376Z,18.67
2019-03-10T08:45:00.435Z,19.93
2019-03-10T08:47:28.447Z,19.03
2019-03-10T08:50:05.114Z,19.37
2019-03-10T08:52:35.997Z,20.53
2019-03-10T08:55:05.386Z,20.17
2019-03-10T08:57:42.235Z,20.97
2019-03-10T09:00:14.760Z,20.73
2019-03-10T09:02:42.647Z,20.23
2019-03-10T09:05:25.462Z,19.97
2019-03-10T09:07:57.718Z,19.70
2019-03-10T09:10:25.453Z,20.67
2019-03-10T09:12:53.303Z,20.20
2019-03-10T09:15:37.959Z,19.77
2019-03-10T09:18:20.771Z,19.07
2019-03-10T09:21:06.661Z,19.83
2019-03-10T09:23:40.255Z,19.90
2019-03-10T09:26:08.082Z,19.23
2019-03-10T09:28:51.220Z,19.10
2019-03-10T09:31:21.965Z,17.77
2019-03-10T09:33:49.781Z,17.93
2019-03-10T09:36:23.436Z,18.63
2019-03-10T09:38:57.619Z,19.40
2019-03-10T09:41:37.335Z,18.90
2019-03-10T09:44:17.444Z,17.07
2019-03-10T09:46:47.966Z,17.37
2019-03-10T09:49:33.122Z,17.40
2019-03-10T09:52:00.900Z,16.77
2019-03-10T09:54:45.883Z,15.70
2019-03-10T09:57:22.536Z,14.77
2019-03-10T09:59:54.265Z,14.43
2019-03-10T10:02:24.745Z,13.73
2019-03-10T10:04:55.479Z,13.43
2019-03-10T10:07:35.479Z,13.73
2019-03-10T10:10:03.582Z,13.67
2019-03-10T10:12:40.076Z,13.30
2019-03-10T10:15:11.948Z,13.77
2019-03-10T10:17:49.034Z,12.90
2019-03-10T10:20:35.442Z,13.00
2019-03-10T10:23:03.327Z,13.30
2019-03-10T10:25:31.184Z,13.53
2019-03-10T10:28:10.986Z,12.63
2019-03-10T10:30:41.660Z,11.37
2019-03-10T10:33:18.133Z,12.23
2019-03-10T10:35:46.051Z,11.90
2019-03-10T10:38:19.726Z,11.60
2019-03-10T10:40:50.291Z,10.00
2019-03-10T10:43:33.376Z,9.60
2019-03-10T10:46:19.401Z,10.77
2019-03-10T10:49:05.468Z,10.80
2019-03-10T10:51:36.416Z,10.10
2019-03-10T10:54:06.866Z,10.33
2019-03-10T10:56:34.584Z,10.37
2019-03-10T10:59:04.861Z,8.27
2019-03-10T11:01:32.710Z,6.60
2019-03-10T11:04:12.538Z,6.20
2019-03-10T11:06:57.112Z,6.80
2019-03-10T11:09:27.640Z,5.80
2019-03-10T11:11:58.087Z,4.43
2019-03-10T11:14:28.747Z,4.47
2019-03-10T11:17:13.105Z,4.43
2019-03-10T11:19:40.970Z,3.70
2019-03-10T11:22:14.712Z,3.70
2019-03-10T11:24:42.591Z,3.97
2019-03-10T11:27:13.498Z,2.83
2019-03-10T11:29:41.323Z,2.80
2019-03-10T11:32:25.938Z,3.40
2019-03-10T11:34:59.513Z,4.07
2019-03-10T11:37:27.250Z,4.10
2019-03-10T11:40:01.251Z,4.50
2019-03-10T11:42:41.002Z,5.67
2019-03-10T11:45:10.183Z,5.60
2019-03-10T11:47:38.374Z,6.13
2019-03-10T11:50:24.109Z,7.03
2019-03-10T11:53:03.804Z,6.83
2019-03-10T11:55:43.625Z,7.77
2019-03-10T11:58:30.101Z,7.73
2019-03-10T12:01:03.641Z,7.43
2019-03-10T12:03:31.501Z,7.73
2019-03-10T12:06:08.541Z,8.20
2019-03-10T12:08:39.588Z,8.37
2019-03-10T12:11:05.503Z,8.77
2019-03-10T12:13:31.356Z,8.53
2019-03-10T12:15:57.260Z,8.67
2019-03-10T12:18:23.215Z,8.90
2019-03-10T12:20:49.151Z,8.77
2019-03-10T12:23:15.039Z,8.43
2019-03-10T12:25:40.972Z,7.90
2019-03-10T12:28:06.788Z,7.60
2019-03-10T12:30:33.014Z,8.00
2019-03-10T12:32:58.836Z,8.20
2019-03-10T12:35:34.023Z,8.00
2019-03-10T12:37:52.536Z,11.83
2019-03-10T12:40:18.391Z,10.03
2019-03-10T12:42:44.306Z,8.43
2019-03-10T12:45:10.617Z,9.97
2019-03-10T12:47:36.571Z,8.07
2019-03-10T12:50:06.003Z,7.13
2019-03-10T12:52:32.278Z,6.90
2019-03-10T12:54:58.252Z,8.53
2019-03-10T12:57:24.183Z,8.93
2019-03-10T12:59:50.105Z,8.50
2019-03-10T13:02:15.943Z,8.70
2019-03-10T13:04:41.773Z,8.83
2019-03-10T13:07:07.660Z,8.00
2019-03-10T13:09:33.652Z,8.80
2019-03-10T13:11:59.491Z,7.80
2019-03-10T13:14:25.430Z,7.60
2019-03-10T13:16:51.277Z,7.20
2019-03-10T13:19:17.450Z,7.80
2019-03-10T13:21:43.488Z,8.90
2019-03-10T13:24:09.655Z,9.50
2019-03-10T13:26:35.517Z,9.40
2019-03-10T13:29:01.453Z,9.27
2019-03-10T13:31:27.435Z,9.37
2019-03-10T13:33:53.474Z,10.40
2019-03-10T13:36:19.406Z,10.70
2019-03-10T13:38:45.391Z,11.03
2019-03-10T13:41:11.377Z,10.00
2019-03-10T13:43:37.328Z,10.43
2019-03-10T13:46:03.367Z,11.00
2019-03-10T13:48:29.394Z,10.93
2019-03-10T13:50:55.256Z,11.30
2019-03-10T13:53:21.182Z,11.17
2019-03-10T13:55:47.149Z,11.40
2019-03-10T13:58:13.088Z,9.50
2019-03-10T14:00:40.366Z,9.63
2019-03-10T14:03:06.464Z,7.60
2019-03-10T14:05:32.489Z,6.63
2019-03-10T14:07:58.337Z,6.72
2019-03-10T14:10:24.307Z,8.70
2019-03-10T14:12:50.247Z,8.70
2019-03-10T14:15:16.454Z,7.50
2019-03-10T14:17:42.497Z,7.60
2019-03-10T14:20:11.063Z,7.62
2019-03-10T14:22:37.174Z,6.90
2019-03-10T14:25:04.865Z,6.10
2019-03-10T14:27:30.692Z,5.72
2019-03-10T14:29:56.695Z,6.08
2019-03-10T14:32:22.646Z,5.67
2019-03-10T14:34:51.145Z,5.75
2019-03-10T14:37:17.117Z,5.70
2019-03-10T14:39:43.045Z,4.80
2019-03-10T14:42:11.041Z,5.12
2019-03-10T14:44:37.211Z,5.20
2019-03-10T14:47:03.331Z,4.58
2019-03-10T14:49:29.189Z,5.67
2019-03-10T14:51:55.175Z,5.83
2019-03-10T14:54:21.007Z,4.62
2019-03-10T14:56:46.952Z,4.97
2019-03-10T14:59:12.957Z,5.53
2019-03-10T15:01:39.974Z,5.87
2019-03-10T15:04:05.958Z,5.40
2019-03-10T15:06:31.995Z,5.70
2019-03-10T15:08:57.920Z,5.03
2019-03-10T15:11:23.762Z,5.40
2019-03-10T15:13:49.623Z,6.20
2019-03-10T15:16:15.768Z,5.93
2019-03-10T15:18:41.860Z,6.60
2019-03-10T15:21:07.811Z,6.00
2019-03-10T15:23:33.647Z,6.47
2019-03-10T15:25:59.629Z,6.70
2019-03-10T15:28:25.797Z,7.27
2019-03-10T15:30:51.693Z,7.13
2019-03-10T15:33:18.644Z,7.00
2019-03-10T15:35:44.736Z,7.33
2019-03-10T15:38:10.887Z,8.53
2019-03-10T15:40:36.908Z,9.43
2019-03-10T15:43:02.885Z,8.87
2019-03-10T15:45:29.189Z,9.67
2019-03-10T15:47:55.259Z,9.87
2019-03-10T15:50:33.313Z,9.80
2019-03-10T15:52:59.233Z,9.70
2019-03-10T15:55:25.112Z,9.23
2019-03-10T15:57:51.212Z,8.97
2019-03-10T16:00:22.811Z,9.20
2019-03-10T16:02:48.742Z,8.97
2019-03-10T16:05:14.713Z,9.37
2019-03-10T16:07:40.864Z,9.10
2019-03-10T16:10:09.251Z,9.53
2019-03-10T16:12:35.363Z,10.30
2019-03-10T16:15:02.563Z,10.33
2019-03-10T16:17:28.502Z,11.13
2019-03-10T16:19:54.815Z,10.43
2019-03-10T16:22:21.928Z,10.60
2019-03-10T16:24:47.798Z,9.70
2019-03-10T16:27:13.802Z,9.23
2019-03-10T16:29:39.633Z,9.47
2019-03-10T16:32:05.493Z,10.10
2019-03-10T16:34:31.471Z,9.67
2019-03-10T16:36:57.359Z,9.07
2019-03-10T16:39:23.182Z,9.23
2019-03-10T16:41:49.057Z,8.67
2019-03-10T16:44:14.914Z,9.20
2019-03-10T16:46:40.769Z,9.07
2019-03-10T16:49:06.634Z,10.03
2019-03-10T16:51:32.486Z,9.63
2019-03-10T16:53:58.416Z,9.73
2019-03-10T16:56:30.613Z,10.10
2019-03-10T16:58:56.771Z,10.10
2019-03-10T17:01:22.645Z,10.07
2019-03-10T17:03:48.509Z,10.67
2019-03-10T17:06:14.469Z,10.50
2019-03-10T17:08:40.334Z,10.37
2019-03-10T17:11:06.437Z,11.20
2019-03-10T17:13:32.390Z,10.77
2019-03-10T17:15:58.304Z,11.70
2019-03-10T17:18:24.398Z,11.00
2019-03-10T17:20:50.262Z,10.90
2019-03-10T17:23:16.137Z,11.30
2019-03-10T17:25:42.214Z,11.20
2019-03-10T17:28:08.150Z,11.73
2019-03-10T17:30:34.130Z,11.37
2019-03-10T17:33:00.103Z,12.43
2019-03-10T17:35:26.045Z,11.90
2019-03-10T17:37:52.151Z,12.40
2019-03-10T17:40:22.312Z,12.37
2019-03-10T17:42:48.273Z,12.73
2019-03-10T17:45:18.326Z,13.13
2019-03-10T17:47:44.387Z,13.97
2019-03-10T17:50:10.553Z,13.53
2019-03-10T17:52:36.668Z,13.17
2019-03-10T17:55:05.067Z,12.83
2019-03-10T17:57:31.042Z,13.33
2019-03-10T17:59:56.978Z,13.50
2019-03-10T18:02:22.942Z,13.83
2019-03-10T18:04:48.970Z,13.93
2019-03-10T18:07:15.040Z,14.57
2019-03-10T18:09:40.891Z,13.60
2019-03-10T18:12:07.598Z,14.40
2019-03-10T18:14:33.493Z,14.10
2019-03-10T18:16:59.356Z,14.90
2019-03-10T18:19:25.356Z,14.30
2019-03-10T18:21:51.285Z,15.07
2019-03-10T18:24:17.176Z,14.03
2019-03-10T18:26:43.022Z,15.27
2019-03-10T18:29:08.868Z,14.20
2019-03-10T18:31:34.779Z,14.67
2019-03-10T18:34:00.732Z,15.17
2019-03-10T18:36:26.668Z,14.47
2019-03-10T18:38:52.509Z,14.33
2019-03-10T18:41:18.567Z,15.43
2019-03-10T18:43:44.536Z,15.20
2019-03-10T18:46:10.403Z,14.80
2019-03-10T18:48:36.485Z,13.70
2019-03-10T18:51:02.526Z,14.93
2019-03-10T18:53:28.396Z,15.33
2019-03-10T18:55:54.343Z,14.47
2019-03-10T18:58:20.296Z,15.70
2019-03-10T19:00:46.238Z,15.37
2019-03-10T19:03:12.084Z,16.40
2019-03-10T19:05:38.065Z,15.77
2019-03-10T19:08:04.012Z,15.37
2019-03-10T19:10:29.877Z,16.50
2019-03-10T19:12:55.732Z,15.20
2019-03-10T19:15:28.079Z,14.47
2019-03-10T19:17:54.244Z,14.00
2019-03-10T19:20:20.307Z,13.40
2019-03-10T19:22:46.231Z,14.00
2019-03-10T19:25:13.475Z,14.33
2019-03-10T19:27:39.393Z,14.50
2019-03-10T19:30:08.829Z,14.27
2019-03-10T19:32:34.802Z,14.70
2019-03-10T19:35:00.746Z,15.60
2019-03-10T19:37:26.612Z,15.40
2019-03-10T19:39:52.498Z,18.83
2019-03-10T19:42:18.468Z,18.80
2019-03-10T19:44:44.411Z,18.40
2019-03-10T19:47:10.270Z,17.50
2019-03-10T19:49:37.291Z,19.00
2019-03-10T19:52:03.321Z,19.07
2019-03-10T19:54:29.178Z,18.17
2019-03-10T19:56:55.118Z,18.00
2019-03-10T19:59:21.006Z,17.17
2019-03-10T20:01:46.835Z,18.73
2019-03-10T20:04:12.726Z,19.20
2019-03-10T20:06:38.789Z,19.03
2019-03-10T20:09:05.185Z,19.43
2019-03-10T20:11:31.081Z,19.40
2019-03-10T20:13:57.064Z,17.63
2019-03-10T20:16:26.013Z,18.93
2019-03-10T20:18:51.994Z,18.20
2019-03-10T20:21:17.857Z,18.03
2019-03-10T20:23:43.857Z,17.37
2019-03-10T20:26:09.717Z,16.93
2019-03-10T20:28:35.687Z,17.33
2019-03-10T20:31:01.549Z,17.27
2019-03-10T20:33:27.429Z,18.10
2019-03-10T20:35:53.663Z,17.70
2019-03-10T20:38:19.819Z,17.60
2019-03-10T20:40:45.773Z,17.63
2019-03-10T20:43:12.026Z,17.80
2019-03-10T20:45:38.580Z,17.63
2019-03-10T20:48:05.231Z,17.30
2019-03-10T20:50:31.610Z,19.07
2019-03-10T20:52:57.866Z,18.23
2019-03-10T20:55:24.666Z,17.73
2019-03-10T20:57:51.435Z,18.27
2019-03-10T21:00:28.165Z,18.67
2019-03-10T21:02:55.161Z,18.23
2019-03-10T21:05:21.912Z,18.60
2019-03-10T21:07:48.402Z,19.20
2019-03-10T21:10:17.525Z,21.00
2019-03-10T21:12:44.081Z,21.13
2019-03-10T21:15:15.514Z,21.97
2019-03-10T21:17:41.874Z,20.97
2019-03-10T21:20:10.517Z,21.40
2019-03-10T21:22:36.611Z,21.73
2019-03-10T21:25:05.612Z,22.37
2019-03-10T21:27:31.481Z,21.53
2019-03-10T21:29:57.415Z,22.23
2019-03-10T21:32:23.236Z,21.33
2019-03-10T21:34:49.093Z,20.97
2019-03-10T21:37:15.139Z,20.63
2019-03-10T21:39:41.003Z,20.47
2019-03-10T21:42:07.081Z,20.30
2019-03-10T21:44:33.003Z,20.33
2019-03-10T21:46:58.871Z,21.30
2019-03-10T21:49:24.967Z,20.13
2019-03-10T21:51:51.068Z,19.20
2019-03-10T21:54:16.921Z,19.23
2019-03-10T21:56:43.058Z,19.27
2019-03-10T21:59:08.926Z,19.30
2019-03-10T22:01:34.882Z,19.70
2019-03-10T22:04:00.701Z,18.73
2019-03-10T22:06:29.561Z,18.83
2019-03-10T22:08:55.574Z,19.00
2019-03-10T22:11:21.794Z,18.93
2019-03-10T22:13:47.897Z,18.60
2019-03-10T22:16:13.806Z,18.43
2019-03-10T22:18:39.642Z,17.43
2019-03-10T22:21:05.728Z,17.77
2019-03-10T22:23:31.844Z,18.30
2019-03-10T22:25:57.868Z,17.97
2019-03-10T22:28:24.104Z,18.30
2019-03-10T22:30:50.123Z,17.50
2019-03-10T22:33:15.999Z,17.10
2019-03-10T22:35:41.889Z,17.27
2019-03-10T22:38:11.751Z,16.07
2019-03-10T22:40:37.604Z,15.43
2019-03-10T22:43:03.619Z,17.13
2019-03-10T22:45:29.473Z,15.77
2019-03-10T22:47:55.366Z,16.80
2019-03-10T22:50:21.436Z,17.53
2019-03-10T22:52:47.374Z,16.80
2019-03-10T22:55:14.239Z,17.60
2019-03-10T22:57:40.272Z,17.70
2019-03-10T23:00:14.883Z,17.27
2019-03-10T23:02:40.713Z,17.73
2019-03-10T23:05:06.861Z,17.80
2019-03-10T23:07:32.682Z,17.77
2019-03-10T23:09:58.636Z,17.20
2019-03-10T23:12:24.509Z,16.93
2019-03-10T23:14:50.345Z,17.77
2019-03-10T23:17:16.420Z,18.07
2019-03-10T23:19:42.255Z,17.43
2019-03-10T23:22:08.196Z,17.47
2019-03-10T23:24:34.247Z,18.83
2019-03-10T23:27:00.108Z,19.57
2019-03-10T23:29:25.955Z,19.20
2019-03-10T23:31:52.050Z,19.67
2019-03-10T23:34:17.992Z,20.07
2019-03-10T23:36:43.836Z,19.00
2019-03-10T23:39:09.855Z,19.37
2019-03-10T23:41:35.770Z,17.80
2019-03-10T23:44:01.882Z,18.57
2019-03-10T23:46:27.714Z,18.17
2019-03-10T23:48:53.531Z,17.67
2019-03-10T23:51:19.406Z,17.80
2019-03-10T23:53:45.210Z,17.23
2019-03-10T23:56:11.121Z,16.00
2019-03-10T23:58:37.123Z,15.93
